Time;durP1;ratioP1;P1;durP2;ratioP2;P2;SDS_P1;SDS_P2;PMS_P1;PMS_P2;Temp;Humidity;BMP_temperature;BMP_pressure;BME280_temperature;BME280_humidity;BME280_pressure;Samples;Min_cycle;Max_cycle;Signal;HPM_P1;HPM_P2
2022/12/17 13:06:40;;;;;;;;;50.40;40.20;;;;;3.88;59.27;101867.31;2106832;27;46669;-64
2022/12/17 13:07:40;;;;;;;;;53.20;43.20;;;;;3.90;59.33;101873.47;2106297;27;46759;-64
2022/12/17 13:08:41;;;;;;;;;50.50;42.00;;;;;3.92;59.29;101868.25;2106266;27;45722;-65
2022/12/17 13:09:51;;;;;;;;;52.75;43.25;;;;;3.97;59.42;101871.91;2105151;28;45698;-65
2022/12/17 13:10:53;;;;;;;;;49.60;43.60;;;;;3.98;59.13;101865.81;2105653;28;45191;-65
2022/12/17 13:11:56;;;;;;;;;45.80;39.60;;;;;3.99;59.16;101867.56;2104806;27;46584;-64
2022/12/17 13:13:09;;;;;;;;;43.80;39.80;;;;;3.99;59.14;101868.47;2107815;27;46775;-64
2022/12/17 13:14:18;;;;;;;;;45.40;41.20;;;;;4.02;59.03;101867.63;2096870;28;48108;-63
2022/12/17 13:15:30;;;;;;;;;50.00;41.40;;;;;4.04;58.86;101868.56;2100993;27;46795;-64
2022/12/17 13:16:48;;;;;;;;;48.60;41.20;;;;;4.03;58.72;101870.28;2109563;27;46516;-65
2022/12/17 13:18:05;;;;;;;;;43.00;37.40;;;;;4.05;58.75;101865.06;2105094;27;45590;-63
2022/12/17 13:19:35;;;;;;;;;38.80;35.40;;;;;4.06;58.73;101865.09;2097053;27;46316;-64
2022/12/17 13:20:36;;;;;;;;;45.60;39.20;;;;;4.05;58.50;101857.19;2095743;28;46391;-64
2022/12/17 13:21:36;;;;;;;;;45.50;38.75;;;;;4.07;58.83;101856.41;2109404;27;46032;-65
2022/12/17 13:22:51;;;;;;;;;44.75;40.25;;;;;4.11;58.55;101862.59;2104599;27;46446;-65
2022/12/17 13:23:52;;;;;;;;;44.80;40.00;;;;;4.13;58.25;101859.16;2097152;28;46898;-65
2022/12/17 13:25:08;;;;;;;;;47.00;40.00;;;;;4.14;58.73;101855.66;2100685;27;46344;-64
2022/12/17 13:26:17;;;;;;;;;40.00;34.20;;;;;4.17;58.58;101856.59;2105068;27;46705;-64
2022/12/17 13:27:37;;;;;;;;;48.00;39.80;;;;;4.19;58.30;101860.13;2106736;27;47200;-64
2022/12/17 13:28:38;;;;;;;;;50.00;40.20;;;;;4.21;58.25;101859.34;2096507;28;46614;-64
2022/12/17 13:29:38;;;;;;;;;44.50;40.25;;;;;4.24;58.16;101864.66;2112917;27;45754;-65
2022/12/17 13:30:39;;;;;;;;;38.25;35.75;;;;;4.27;58.64;101855.94;2111139;27;45815;-65
2022/12/17 13:31:52;;;;;;;;;43.25;38.75;;;;;4.28;58.45;101861.22;2105704;27;46537;-64
2022/12/17 13:33:05;;;;;;;;;37.00;35.40;;;;;4.30;58.54;101859.53;2113117;27;46276;-63
2022/12/17 13:34:18;;;;;;;;;44.40;39.80;;;;;4.35;58.11;101860.53;2109520;27;46881;-68
2022/12/17 13:35:28;;;;;;;;;37.20;33.00;;;;;4.38;58.11;101851.81;2105543;27;45042;-62
2022/12/17 13:36:51;;;;;;;;;46.00;39.60;;;;;4.44;58.24;101860.72;2105331;28;46396;-62
2022/12/17 13:38:00;;;;;;;;;47.00;40.60;;;;;4.48;58.23;101855.53;2109948;27;45757;-64
2022/12/17 13:39:00;;;;;;;;;37.40;35.20;;;;;4.49;57.69;101855.56;2105131;27;47110;-62
2022/12/17 13:40:16;;;;;;;;;48.50;41.25;;;;;4.49;57.70;101857.31;2105680;28;45554;-63
2022/12/17 13:41:26;;;;;;;;;49.20;40.60;;;;;4.50;57.81;101857.34;2106882;27;46869;-63
2022/12/17 13:42:30;;;;;;;;;45.40;37.80;;;;;4.50;57.96;101848.56;2105023;27;46722;-63
2022/12/17 13:43:37;;;;;;;;;47.80;40.40;;;;;4.51;58.07;101851.22;2102465;27;47139;-64
2022/12/17 13:44:42;;;;;;;;;42.40;39.60;;;;;4.51;57.89;101852.97;2103846;27;47303;-64
2022/12/17 13:45:43;;;;;;;;;47.40;41.20;;;;;4.52;57.88;101853.00;2105452;27;46475;-64
2022/12/17 13:46:46;;;;;;;;;47.50;42.00;;;;;4.51;57.84;101851.22;2105970;27;46586;-66
2022/12/17 13:47:57;;;;;;;;;46.00;39.20;;;;;4.50;57.54;101851.19;2110416;27;46500;-62
2022/12/17 13:49:01;;;;;;;;;40.20;36.00;;;;;4.48;57.45;101853.78;2103401;27;46164;-66
2022/12/17 13:50:17;;;;;;;;;48.20;40.40;;;;;4.48;57.81;101853.78;2104888;27;46574;-63
2022/12/17 13:51:20;;;;;;;;;43.60;39.00;;;;;4.54;57.51;101860.91;2112256;27;46845;-63
2022/12/17 13:52:27;;;;;;;;;50.40;39.60;;;;;4.57;57.46;101851.34;2112751;27;47111;-63
2022/12/17 13:53:32;;;;;;;;;43.80;39.00;;;;;4.58;57.54;101857.50;2093961;28;45220;-64
2022/12/17 13:54:33;;;;;;;;;42.40;36.20;;;;;4.57;57.30;101856.59;2094216;28;46770;-63
2022/12/17 13:55:33;;;;;;;;;47.00;40.00;;;;;4.57;57.86;101842.56;2105299;27;46816;-63
2022/12/17 13:56:36;;;;;;;;;42.25;39.25;;;;;4.57;57.39;101848.72;2105605;27;47092;-64
2022/12/17 13:57:37;;;;;;;;;45.80;40.00;;;;;4.58;57.51;101845.25;2103590;27;45992;-65
2022/12/17 13:58:37;;;;;;;;;50.80;40.80;;;;;4.58;57.36;101839.13;2104737;27;46293;-65
2022/12/17 13:59:38;;;;;;;;;38.00;36.00;;;;;4.58;57.27;101842.63;2112168;27;46669;-66
2022/12/17 14:00:38;;;;;;;;;39.00;37.00;;;;;4.58;57.76;101847.00;2106149;27;46861;-64
2022/12/17 14:01:47;;;;;;;;;43.75;39.00;;;;;4.58;57.79;101841.75;2106755;27;46564;-65
2022/12/17 14:02:47;;;;;;;;;48.00;39.40;;;;;4.58;57.19;101844.38;2113274;27;46822;-66
2022/12/17 14:03:51;;;;;;;;;31.00;29.75;;;;;4.57;57.64;101845.19;2113157;27;46453;-66
2022/12/17 14:04:57;;;;;;;;;39.80;37.40;;;;;4.56;57.37;101846.06;2111675;27;46137;-65
2022/12/17 14:05:57;;;;;;;;;44.40;40.20;;;;;4.56;57.41;101852.19;2105115;27;45975;-66
2022/12/17 14:07:02;;;;;;;;;41.75;37.50;;;;;4.57;57.08;101858.34;2110685;27;46397;-65
2022/12/17 14:08:04;;;;;;;;;44.60;38.00;;;;;4.56;57.61;101854.81;2111724;27;46295;-64
2022/12/17 14:09:05;;;;;;;;;43.80;38.40;;;;;4.57;57.43;101856.59;2104800;27;46547;-65
2022/12/17 14:10:15;;;;;;;;;37.75;37.00;;;;;4.57;57.54;101856.59;2104844;27;46636;-65
2022/12/17 14:12:34;;;;;;;;;36.00;34.00;;;;;4.54;56.87;101856.53;2105030;28;46983;-66
2022/12/17 14:13:35;;;;;;;;;50.00;41.00;;;;;4.54;56.99;101850.41;2110424;27;45939;-65
2022/12/17 14:14:39;;;;;;;;;41.80;39.00;;;;;4.54;57.00;101860.91;2110553;27;46376;-66
2022/12/17 14:15:48;;;;;;;;;35.00;31.00;;;;;4.55;56.97;101858.31;2101989;27;46014;-65
2022/12/17 14:16:49;;;;;;;;;42.40;37.00;;;;;4.56;57.11;101853.94;2103936;28;45665;-65
2022/12/17 14:17:51;;;;;;;;;39.50;36.25;;;;;4.57;57.22;101859.22;2104144;28;46789;-65
2022/12/17 14:18:55;;;;;;;;;37.80;35.40;;;;;4.59;56.94;101856.66;2104455;28;46073;-65
2022/12/17 14:20:03;;;;;;;;;34.20;32.80;;;;;4.59;57.17;101860.16;2104585;27;47264;-66
2022/12/17 14:21:04;;;;;;;;;41.20;37.40;;;;;4.59;56.85;101854.03;2098795;27;46459;-65
2022/12/17 14:22:05;;;;;;;;;45.25;40.25;;;;;4.58;57.02;101847.88;2106630;27;45502;-66
2022/12/17 14:23:30;;;;;;;;;33.50;28.50;;;;;4.59;56.92;101856.66;2106447;27;46422;-65
2022/12/17 14:24:30;;;;;;;;;37.20;36.40;;;;;4.57;56.76;101864.47;2105891;27;45948;-65
2022/12/17 14:25:39;;;;;;;;;35.00;30.00;;;;;4.57;56.57;101864.47;2106408;27;45987;-65
2022/12/17 14:26:53;;;;;;;;;42.60;37.60;;;;;4.57;56.42;101866.22;2113745;27;45581;-66
2022/12/17 14:27:59;;;;;;;;;39.20;36.60;;;;;4.55;56.46;101860.94;2109046;27;47156;-65
2022/12/17 14:28:59;;;;;;;;;43.00;36.80;;;;;4.56;56.90;101861.81;2105166;28;47380;-66
2022/12/17 14:30:01;;;;;;;;;39.50;35.50;;;;;4.57;56.14;101868.84;2113667;27;46442;-66
2022/12/17 14:31:07;;;;;;;;;41.00;39.00;;;;;4.56;56.32;101867.97;2112117;27;46164;-66
2022/12/17 14:32:22;;;;;;;;;35.40;31.00;;;;;4.55;56.82;101870.56;2100653;27;47016;-65
2022/12/17 14:33:28;;;;;;;;;43.80;34.80;;;;;4.57;56.54;101866.22;2105277;28;46454;-66
2022/12/17 14:34:40;;;;;;;;;44.60;39.20;;;;;4.57;56.88;101869.75;2104935;28;46013;-66
2022/12/17 14:35:40;;;;;;;;;43.00;40.40;;;;;4.59;56.87;101875.06;2105787;27;47812;-66
2022/12/17 14:36:42;;;;;;;;;39.00;36.00;;;;;4.59;56.17;101869.81;2105408;28;45727;-66
2022/12/17 14:37:46;;;;;;;;;38.80;37.60;;;;;4.60;56.88;101871.56;2106178;28;46046;-65
2022/12/17 14:39:15;;;;;;;;;43.60;37.60;;;;;4.61;56.96;101868.97;2105894;27;47077;-66
2022/12/17 14:40:16;;;;;;;;;42.20;40.20;;;;;4.61;56.81;101873.34;2106072;27;46987;-65
2022/12/17 14:42:35;;;;;;;;;43.40;37.40;;;;;4.56;56.67;101873.22;2106205;28;46320;-66
2022/12/17 14:43:36;;;;;;;;;40.80;37.20;;;;;4.56;56.53;101867.97;2106265;27;45742;-65
2022/12/17 14:44:48;;;;;;;;;43.75;38.75;;;;;4.57;56.82;101876.75;2106710;27;46363;-66
2022/12/17 14:47:21;;;;;;;;;33.20;32.60;;;;;4.57;56.41;101882.00;2108184;27;45842;-66
2022/12/17 14:48:59;;;;;;;;;47.00;37.20;;;;;4.58;56.46;101883.81;2106159;28;45149;-65
2022/12/17 14:50:04;;;;;;;;;40.00;36.80;;;;;4.57;56.12;101882.00;2106202;28;46976;-65
2022/12/17 14:51:05;;;;;;;;;42.20;38.80;;;;;4.58;56.47;101875.91;2106383;27;46362;-66
2022/12/17 14:52:13;;;;;;;;;39.25;37.50;;;;;4.58;56.06;101878.53;2106038;28;45246;-66
2022/12/17 14:53:26;;;;;;;;;53.00;41.60;;;;;4.59;56.02;101869.81;2106342;28;46328;-66
2022/12/17 14:54:29;;;;;;;;;42.20;39.20;;;;;4.60;55.99;101872.47;2106292;27;46262;-66
2022/12/17 14:55:57;;;;;;;;;43.40;36.80;;;;;4.62;56.29;101865.47;2110307;27;46634;-65
2022/12/17 14:56:59;;;;;;;;;48.20;41.00;;;;;4.63;56.00;101871.63;2099269;28;45480;-65
2022/12/17 14:58:13;;;;;;;;;41.00;37.00;;;;;4.63;56.13;101862.00;2101578;27;46355;-65
2022/12/17 14:59:33;;;;;;;;;40.60;36.20;;;;;4.64;56.06;101855.88;2099274;27;46919;-66
2022/12/17 15:00:37;;;;;;;;;41.60;37.20;;;;;4.63;56.03;101851.47;2098040;27;48616;-66
2022/12/17 15:01:38;;;;;;;;;42.60;36.60;;;;;4.63;56.21;101851.47;2097743;28;46959;-65
2022/12/17 15:02:40;;;;;;;;;41.50;36.75;;;;;4.61;56.07;101849.69;2101192;27;46055;-65
2022/12/17 15:03:45;;;;;;;;;48.20;37.60;;;;;4.61;55.60;101852.31;2104958;27;46833;-65
2022/12/17 15:04:45;;;;;;;;;41.20;38.20;;;;;4.62;56.27;101854.09;2104786;28;46261;-65
2022/12/17 15:05:59;;;;;;;;;33.00;29.75;;;;;4.61;55.42;101857.56;2104893;27;46614;-65
2022/12/17 15:07:00;;;;;;;;;43.00;39.00;;;;;4.60;56.14;101847.91;2105135;28;46927;-65
2022/12/17 15:08:00;;;;;;;;;47.00;38.00;;;;;4.60;55.70;101856.69;2104846;27;45011;-66
2022/12/17 15:09:01;;;;;;;;;43.75;37.75;;;;;4.59;55.90;101854.91;2096286;28;46767;-65
2022/12/17 15:10:12;;;;;;;;;38.75;34.25;;;;;4.57;55.96;101856.59;2096730;28;46510;-65
2022/12/17 15:11:16;;;;;;;;;39.20;36.40;;;;;4.57;55.92;101858.34;2105177;27;46344;-65
2022/12/17 15:12:16;;;;;;;;;33.60;31.60;;;;;4.55;55.60;101858.31;2096767;28;46512;-66
2022/12/17 15:13:17;;;;;;;;;42.75;36.75;;;;;4.53;55.32;101864.41;2096889;28;45545;-65
2022/12/17 15:14:17;;;;;;;;;42.50;38.75;;;;;4.54;56.06;101863.53;2105009;27;45488;-66
2022/12/17 15:15:19;;;;;;;;;40.75;38.00;;;;;4.50;55.63;101861.72;2103856;27;46531;-65
2022/12/17 15:16:20;;;;;;;;;31.00;29.20;;;;;4.48;55.81;101868.69;2096956;28;46311;-67
2022/12/17 15:17:20;;;;;;;;;33.75;31.75;;;;;4.44;55.52;101863.34;2097096;28;46431;-67
2022/12/17 15:18:21;;;;;;;;;30.75;30.25;;;;;4.43;55.89;101861.56;2098253;27;45942;-65
2022/12/17 15:19:21;;;;;;;;;41.50;37.25;;;;;4.43;55.02;101865.94;2097944;28;46916;-66
2022/12/17 15:20:22;;;;;;;;;34.00;33.00;;;;;4.40;55.93;101858.00;2092986;28;46231;-67
2022/12/17 15:21:24;;;;;;;;;37.50;36.25;;;;;4.38;55.79;101859.69;2105237;28;46182;-67
2022/12/17 15:22:24;;;;;;;;;37.80;35.80;;;;;4.34;55.56;101864.00;2105504;27;45779;-66
2022/12/17 15:23:24;;;;;;;;;41.75;38.25;;;;;4.32;55.72;101854.28;2096580;28;46185;-67
2022/12/17 15:24:25;;;;;;;;;38.25;32.25;;;;;4.29;55.10;101856.88;2088752;28;45863;-66
2022/12/17 15:25:26;;;;;;;;;37.60;33.40;;;;;4.26;55.23;101856.81;2079569;28;46783;-66
2022/12/17 15:26:26;;;;;;;;;26.75;26.75;;;;;4.23;55.78;101852.38;2088424;28;46483;-65
2022/12/17 15:27:27;;;;;;;;;35.25;32.25;;;;;4.21;55.41;101854.09;2097194;28;46149;-66
2022/12/17 15:28:27;;;;;;;;;35.25;33.75;;;;;4.19;55.21;101850.50;2099178;28;45479;-66
2022/12/17 15:29:27;;;;;;;;;33.50;32.75;;;;;4.18;55.95;101850.47;2105111;27;46711;-67
2022/12/17 15:30:28;;;;;;;;;27.00;26.25;;;;;4.16;55.65;101849.56;2106169;28;45863;-68
2022/12/17 15:31:28;;;;;;;;;32.25;27.75;;;;;4.14;55.50;101849.53;2105228;28;46026;-68
2022/12/17 15:32:29;;;;;;;;;32.50;27.75;;;;;4.13;55.64;101853.91;2105210;28;46098;-68
2022/12/17 15:33:29;;;;;;;;;33.75;30.75;;;;;4.10;55.59;101859.09;2105144;27;46450;-67
2022/12/17 15:34:30;;;;;;;;;34.50;33.25;;;;;4.08;55.54;101862.53;2102442;27;46491;-67
2022/12/17 15:35:30;;;;;;;;;27.25;26.75;;;;;4.04;55.50;101864.19;2111250;27;46924;-68
2022/12/17 15:36:31;;;;;;;;;31.75;27.25;;;;;4.02;55.59;101870.25;2105850;27;45447;-67
2022/12/17 15:37:31;;;;;;;;;31.75;26.25;;;;;3.99;55.39;101870.19;2105945;27;46908;-68
2022/12/17 15:38:32;;;;;;;;;36.25;30.25;;;;;3.96;55.38;101873.66;2113876;27;46455;-68
2022/12/17 15:39:32;;;;;;;;;31.50;30.00;;;;;3.94;55.68;101874.44;2107279;27;46816;-66
2022/12/17 15:40:35;;;;;;;;;34.50;33.50;;;;;3.92;55.71;101871.78;2101508;28;46654;-67
2022/12/17 15:43:10;;;;;;;;;31.40;29.60;;;;;3.90;55.74;101886.63;2106144;27;46311;-66
2022/12/17 15:44:10;;;;;;;;;36.20;30.20;;;;;3.90;55.76;101883.09;2105401;27;46617;-65
2022/12/17 15:45:11;;;;;;;;;33.00;33.00;;;;;3.87;55.51;101885.66;2106234;27;45991;-65
2022/12/17 15:46:11;;;;;;;;;28.50;25.25;;;;;3.86;55.99;101882.16;2113924;27;46175;-65
2022/12/17 15:47:11;;;;;;;;;34.75;33.00;;;;;3.87;55.68;101885.66;2110930;27;46646;-66
2022/12/17 15:48:17;;;;;;;;;36.75;33.25;;;;;3.87;55.86;101877.78;2113562;27;46232;-68
2022/12/17 15:49:18;;;;;;;;;29.00;27.00;;;;;3.86;56.12;101884.78;2113446;27;47259;-64
2022/12/17 15:50:18;;;;;;;;;34.50;33.00;;;;;3.84;55.72;101886.47;2110189;27;46650;-65
2022/12/17 15:51:19;;;;;;;;;36.00;32.00;;;;;3.85;55.63;101883.00;2106483;27;46429;-66
2022/12/17 15:52:20;;;;;;;;;36.20;33.00;;;;;3.84;56.02;101890.00;2109489;27;46541;-65
2022/12/17 15:53:39;;;;;;;;;42.20;35.40;;;;;3.83;55.89;101885.59;2110681;27;45537;-64
2022/12/17 15:54:58;;;;;;;;;36.80;33.80;;;;;3.83;55.71;101887.34;2098924;28;45133;-64
2022/12/17 15:56:04;;;;;;;;;35.20;33.00;;;;;3.80;55.76;101889.84;2107402;27;46799;-65
2022/12/17 15:57:04;;;;;;;;;14.50;11.25;;;;;3.79;56.02;101891.59;2094296;28;47231;-65
2022/12/17 15:58:06;;;;;;;;;35.25;32.25;;;;;3.77;56.09;101895.94;2095997;28;45385;-66
2022/12/17 15:59:07;;;;;;;;;34.00;32.40;;;;;3.77;56.12;101897.66;2100761;27;46623;-66
2022/12/17 16:00:08;;;;;;;;;38.50;35.00;;;;;3.76;56.05;101901.16;2102525;27;46415;-65
2022/12/17 16:01:08;;;;;;;;;38.60;36.40;;;;;3.77;56.09;101902.91;2104909;28;47791;-66
2022/12/17 16:02:10;;;;;;;;;36.25;33.25;;;;;3.76;56.03;101903.78;2107350;27;46297;-65
2022/12/17 16:03:10;;;;;;;;;43.00;39.80;;;;;3.75;55.78;101910.75;2100277;27;46263;-65
2022/12/17 16:04:10;;;;;;;;;31.75;29.00;;;;;3.75;56.13;101902.88;2107216;27;46250;-65
2022/12/17 16:05:11;;;;;;;;;35.25;34.50;;;;;3.74;56.16;101909.00;2105076;28;46801;-65
2022/12/17 16:06:11;;;;;;;;;34.25;32.00;;;;;3.73;55.91;101909.84;2102031;28;46820;-66
2022/12/17 16:07:12;;;;;;;;;37.00;35.00;;;;;3.73;56.27;101909.84;2105361;27;45759;-64
2022/12/17 16:08:12;;;;;;;;;41.25;36.75;;;;;3.74;55.98;101910.72;2106838;27;46198;-65
2022/12/17 16:09:12;;;;;;;;;39.25;35.25;;;;;3.73;56.21;101911.56;2105058;28;46608;-66
2022/12/17 16:10:14;;;;;;;;;31.75;30.75;;;;;3.72;56.05;101907.19;2102181;28;46815;-65
2022/12/17 16:11:14;;;;;;;;;36.20;33.80;;;;;3.70;55.98;101904.53;2101874;28;46869;-63
2022/12/17 16:12:15;;;;;;;;;35.75;33.00;;;;;3.70;56.10;101903.63;2103273;28;46241;-64
2022/12/17 16:13:15;;;;;;;;;45.00;39.00;;;;;3.68;56.41;101900.94;2105303;28;46999;-65
2022/12/17 16:14:16;;;;;;;;;32.50;30.75;;;;;3.67;56.23;101896.53;2105191;28;46817;-65
2022/12/17 16:15:16;;;;;;;;;40.75;35.25;;;;;3.67;56.54;101904.41;2108628;27;46582;-65
2022/12/17 16:16:16;;;;;;;;;35.50;32.25;;;;;3.66;56.36;101899.13;2108479;27;46835;-65
2022/12/17 16:17:17;;;;;;;;;38.75;35.00;;;;;3.65;56.39;101899.97;2105442;27;46326;-65
2022/12/17 16:18:17;;;;;;;;;36.50;32.50;;;;;3.64;56.29;101903.47;2105323;27;46668;-65
2022/12/17 16:19:21;;;;;;;;;40.75;36.50;;;;;3.63;55.97;101901.69;2104952;27;46952;-65
2022/12/17 16:20:22;;;;;;;;;31.40;29.20;;;;;3.63;56.32;101904.31;2105268;28;46291;-66
2022/12/17 16:21:23;;;;;;;;;39.20;34.20;;;;;3.63;56.49;101906.94;2104080;28;46453;-64
2022/12/17 16:22:23;;;;;;;;;36.50;34.50;;;;;3.62;55.94;101907.78;2104874;27;44967;-66
2022/12/17 16:23:23;;;;;;;;;33.25;32.25;;;;;3.60;56.11;101912.13;2107250;27;46345;-66
2022/12/17 16:24:24;;;;;;;;;31.25;30.75;;;;;3.58;56.30;101904.22;2109349;27;46485;-66
2022/12/17 16:25:24;;;;;;;;;33.25;33.25;;;;;3.58;56.42;101911.19;2105151;28;46237;-64
2022/12/17 16:26:25;;;;;;;;;31.75;30.25;;;;;3.58;56.45;101909.47;2108831;27;46242;-66
2022/12/17 16:27:25;;;;;;;;;31.25;31.00;;;;;3.57;56.22;101904.16;2111496;27;46754;-66
2022/12/17 16:28:26;;;;;;;;;33.75;27.50;;;;;3.56;55.71;101895.41;2104875;28;46059;-65
2022/12/17 16:29:27;;;;;;;;;32.40;29.40;;;;;3.57;56.04;101893.69;2099153;28;46602;-64
2022/12/17 16:30:27;;;;;;;;;34.25;30.00;;;;;3.55;56.07;101894.50;2096280;28;46784;-65
2022/12/17 16:31:27;;;;;;;;;32.50;31.00;;;;;3.55;55.84;101894.50;2104369;27;46220;-68
2022/12/17 16:32:28;;;;;;;;;36.75;34.00;;;;;3.54;56.11;101894.47;2096421;28;45854;-65
2022/12/17 16:33:33;;;;;;;;;35.25;35.00;;;;;3.54;56.03;101892.72;2105125;28;46351;-67
2022/12/17 16:34:33;;;;;;;;;25.00;25.00;;;;;3.54;55.96;101897.97;2098475;27;46262;-66
2022/12/17 16:35:34;;;;;;;;;29.00;25.50;;;;;3.52;55.95;101897.03;2098593;28;46309;-66
2022/12/17 16:36:34;;;;;;;;;30.75;29.00;;;;;3.50;55.99;101893.50;2113119;27;46755;-66
2022/12/17 16:37:34;;;;;;;;;30.00;29.00;;;;;3.48;56.03;101889.94;2108307;27;46692;-66
2022/12/17 16:38:35;;;;;;;;;30.25;25.75;;;;;3.48;56.11;101892.56;2113038;27;46131;-63
2022/12/17 16:39:35;;;;;;;;;33.75;30.75;;;;;3.47;55.84;101897.78;2108402;27;45967;-64
2022/12/17 16:40:37;;;;;;;;;34.00;32.00;;;;;3.46;56.20;101896.00;2104474;27;45701;-65
2022/12/17 16:41:37;;;;;;;;;27.00;25.20;;;;;3.45;55.74;101895.13;2105349;27;46399;-65
2022/12/17 16:42:37;;;;;;;;;30.50;30.50;;;;;3.45;55.87;101903.00;2107132;27;46743;-65
2022/12/17 16:43:38;;;;;;;;;29.50;27.75;;;;;3.45;56.28;101908.25;2109022;27;46430;-67
2022/12/17 16:44:39;;;;;;;;;31.60;29.40;;;;;3.46;56.27;101915.28;2104776;27;45954;-67
2022/12/17 16:45:47;;;;;;;;;35.50;33.50;;;;;3.46;55.95;101911.75;2106159;28;45829;-66
2022/12/17 16:46:48;;;;;;;;;31.40;27.20;;;;;3.45;55.79;101912.59;2096620;28;46194;-66
2022/12/17 16:47:49;;;;;;;;;28.50;26.25;;;;;3.45;55.95;101916.13;2101241;28;46567;-66
2022/12/17 16:48:50;;;;;;;;;35.80;28.80;;;;;3.45;56.28;101907.34;2105317;27;46077;-65
2022/12/17 16:49:50;;;;;;;;;37.50;37.00;;;;;3.45;56.29;101907.34;2105414;27;45845;-66
2022/12/17 16:50:50;;;;;;;;;31.75;31.75;;;;;3.46;56.05;101899.53;2108721;27;46620;-65
2022/12/17 16:51:52;;;;;;;;;32.25;31.00;;;;;3.45;56.10;101899.50;2113554;27;46194;-65
2022/12/17 16:52:52;;;;;;;;;32.80;29.80;;;;;3.45;56.26;101894.25;2105990;27;46713;-65
2022/12/17 16:53:53;;;;;;;;;37.75;33.75;;;;;3.45;56.00;101894.25;2105681;28;46027;-67
2022/12/17 16:54:53;;;;;;;;;38.00;32.00;;;;;3.45;56.07;101892.50;2105883;27;46208;-66
2022/12/17 16:55:53;;;;;;;;;62.25;51.00;;;;;3.44;56.08;101888.09;2103948;28;46435;-66
2022/12/17 16:56:54;;;;;;;;;72.75;60.50;;;;;3.44;56.37;101884.59;2113459;27;45932;-65
2022/12/17 16:57:54;;;;;;;;;71.50;57.75;;;;;3.45;56.40;101886.38;2113179;27;46471;-66
2022/12/17 16:58:55;;;;;;;;;59.25;48.25;;;;;3.46;56.47;101882.91;2108830;27;45834;-66
2022/12/17 16:59:55;;;;;;;;;73.25;58.00;;;;;3.48;56.59;101886.44;2113642;27;46969;-66
2022/12/17 17:00:55;;;;;;;;;65.75;53.25;;;;;3.49;56.68;101886.47;2105613;27;46654;-66
2022/12/17 17:01:56;;;;;;;;;48.00;41.00;;;;;3.52;56.55;101883.03;2114259;27;45587;-67
2022/12/17 17:02:56;;;;;;;;;49.50;42.25;;;;;3.51;56.58;101890.03;2115448;27;46757;-65
2022/12/17 17:03:57;;;;;;;;;43.75;40.25;;;;;3.50;56.47;101887.34;2102569;28;46408;-65
2022/12/17 17:04:57;;;;;;;;;46.00;40.00;;;;;3.49;56.58;101883.84;2105182;27;45131;-63
2022/12/17 17:06:02;;;;;;;;;50.75;43.50;;;;;3.50;56.82;101884.75;2112296;27;45943;-65
2022/12/17 17:07:03;;;;;;;;;46.80;41.40;;;;;3.52;56.53;101880.41;2107661;27;46371;-64
2022/12/17 17:08:04;;;;;;;;;51.00;43.50;;;;;3.50;56.79;101885.63;2104774;28;46325;-65
2022/12/17 17:09:04;;;;;;;;;46.20;43.00;;;;;3.50;56.74;101887.34;2110518;27;46414;-64
2022/12/17 17:10:05;;;;;;;;;47.75;42.75;;;;;3.48;56.77;101897.81;2109136;27;46311;-67
2022/12/17 17:11:20;;;;;;;;;48.75;40.25;;;;;3.49;56.60;101894.34;2113453;27;47116;-65
2022/12/17 17:12:21;;;;;;;;;54.00;43.20;;;;;3.48;56.73;101904.81;2112741;27;46775;-64
2022/12/17 17:13:21;;;;;;;;;49.50;42.25;;;;;3.46;56.67;101896.00;2113416;27;47901;-65
2022/12/17 17:14:21;;;;;;;;;46.00;40.75;;;;;3.44;56.85;101897.72;2113745;27;46573;-65
2022/12/17 17:15:22;;;;;;;;;58.25;46.00;;;;;3.43;57.10;101901.16;2112329;27;46633;-64
2022/12/17 17:16:24;;;;;;;;;53.50;44.75;;;;;3.41;57.14;101894.97;2111867;27;46570;-65
2022/12/17 17:17:24;;;;;;;;;58.40;45.40;;;;;3.38;56.84;101887.94;2110911;27;46397;-65
2022/12/17 17:18:28;;;;;;;;;56.25;46.00;;;;;3.35;57.11;101882.59;2101239;27;46817;-65
2022/12/17 17:19:28;;;;;;;;;58.40;49.40;;;;;3.35;57.08;101879.97;2096470;28;46501;-64
2022/12/17 17:20:30;;;;;;;;;57.00;48.00;;;;;3.34;57.54;101879.94;2104875;27;45832;-65
2022/12/17 17:21:37;;;;;;;;;66.60;49.20;;;;;3.32;56.85;101884.28;2105077;27;46339;-66
2022/12/17 17:22:38;;;;;;;;;63.00;51.00;;;;;3.30;56.92;101894.69;2105499;27;46855;-64
2022/12/17 17:23:39;;;;;;;;;57.50;47.00;;;;;3.29;57.35;101889.41;2113243;27;46587;-64
2022/12/17 17:24:39;;;;;;;;;62.20;50.80;;;;;3.27;57.58;101898.97;2113379;27;45648;-65
2022/12/17 17:25:40;;;;;;;;;61.00;49.00;;;;;3.25;57.73;101897.22;2105397;27;46428;-64
2022/12/17 17:26:40;;;;;;;;;64.75;53.50;;;;;3.25;57.63;101896.31;2105875;27;46761;-64
2022/12/17 17:27:41;;;;;;;;;62.00;53.50;;;;;3.25;57.89;101891.97;2104967;28;46823;-65
2022/12/17 17:28:41;;;;;;;;;63.75;53.25;;;;;3.24;57.83;101892.81;2097160;28;46428;-64
2022/12/17 17:29:41;;;;;;;;;65.75;54.50;;;;;3.24;57.66;101894.56;2101143;28;46102;-64
2022/12/17 17:30:42;;;;;;;;;65.75;54.00;;;;;3.23;57.80;101888.41;2106327;27;46879;-64
2022/12/17 17:31:42;;;;;;;;;62.50;52.00;;;;;3.23;57.87;101891.03;2100328;27;45914;-64
2022/12/17 17:32:43;;;;;;;;;64.00;53.00;;;;;3.22;57.82;101889.25;2099400;28;45752;-64
2022/12/17 17:33:47;;;;;;;;;64.75;51.25;;;;;3.22;57.72;101891.00;2105171;28;47764;-63
2022/12/17 17:34:47;;;;;;;;;70.20;56.60;;;;;3.20;57.72;101896.22;2105312;27;47169;-64
2022/12/17 17:35:48;;;;;;;;;61.00;50.75;;;;;3.21;57.73;101897.97;2106212;27;45803;-65
2022/12/17 17:36:48;;;;;;;;;69.00;55.00;;;;;3.21;57.93;101903.22;2113267;27;45816;-64
2022/12/17 17:37:49;;;;;;;;;65.25;54.75;;;;;3.21;58.05;101908.47;2113815;27;45790;-66
2022/12/17 17:38:51;;;;;;;;;66.75;55.00;;;;;3.21;58.02;101916.34;2113989;27;45457;-65
2022/12/17 17:39:51;;;;;;;;;68.60;55.20;;;;;3.21;57.77;101910.22;2113690;27;46298;-63
2022/12/17 17:40:56;;;;;;;;;60.50;49.00;;;;;3.22;57.99;101919.84;2114781;27;45944;-65
2022/12/17 17:41:56;;;;;;;;;71.20;57.20;;;;;3.21;57.78;101916.34;2113899;27;46411;-65
2022/12/17 17:42:57;;;;;;;;;66.00;54.50;;;;;3.20;57.86;101919.81;2113951;27;46222;-66
2022/12/17 17:44:03;;;;;;;;;67.50;54.25;;;;;3.19;58.02;101914.53;2113271;27;46164;-64
2022/12/17 17:45:05;;;;;;;;;65.20;55.00;;;;;3.18;57.69;101910.13;2114115;27;45295;-65
2022/12/17 17:46:17;;;;;;;;;68.00;54.20;;;;;3.20;58.04;101917.19;2104864;27;47555;-66
2022/12/17 17:47:17;;;;;;;;;61.00;49.60;;;;;3.19;57.94;101912.78;2106497;27;45790;-64
2022/12/17 17:48:18;;;;;;;;;58.50;45.50;;;;;3.17;57.75;101909.22;2113841;27;46111;-66
2022/12/17 17:49:19;;;;;;;;;59.00;50.20;;;;;3.18;58.04;101918.00;2105458;28;46156;-66
2022/12/17 17:50:19;;;;;;;;;63.25;53.25;;;;;3.16;58.05;101917.94;2104945;28;48474;-65
2022/12/17 17:51:22;;;;;;;;;45.75;38.25;;;;;3.16;57.75;101914.44;2113578;27;45807;-64
2022/12/17 17:52:23;;;;;;;;;64.60;54.00;;;;;3.15;57.95;101912.66;2113453;27;46394;-65
2022/12/17 17:53:24;;;;;;;;;61.50;50.00;;;;;3.14;58.02;101921.38;2114072;27;45608;-65
2022/12/17 17:54:24;;;;;;;;;67.00;56.00;;;;;3.13;57.85;101922.22;2113333;27;46809;-66
2022/12/17 17:55:25;;;;;;;;;61.25;51.50;;;;;3.12;57.93;101912.56;2112749;27;46443;-64
2022/12/17 17:56:32;;;;;;;;;60.00;49.75;;;;;3.12;57.91;101904.69;2107825;27;45397;-65
2022/12/17 17:57:32;;;;;;;;;62.00;49.20;;;;;3.11;57.86;101906.44;2113552;27;46328;-65
2022/12/17 17:58:33;;;;;;;;;67.25;53.50;;;;;3.11;57.83;101909.06;2122689;27;47229;-65
2022/12/17 17:59:34;;;;;;;;;59.00;47.25;;;;;3.11;57.85;101901.19;2119368;27;45332;-64
2022/12/17 18:00:36;;;;;;;;;65.75;50.25;;;;;3.11;57.85;101902.94;2114021;27;45867;-65
2022/12/17 18:04:23;;;;;;;;;48.60;41.60;;;;;3.07;57.90;101898.47;2112173;27;46736;-64
2022/12/17 18:05:23;;;;;;;;;56.40;46.40;;;;;3.05;58.08;101900.13;2111198;27;46432;-65
2022/12/17 18:06:25;;;;;;;;;58.50;49.00;;;;;3.03;57.87;101894.84;2113502;27;46784;-64